Time;durP1;ratioP1;P1;durP2;ratioP2;P2;SDS_P1;SDS_P2;PMS_P1;PMS_P2;Temp;Humidity;BMP_temperature;BMP_pressure;BME280_temperature;BME280_humidity;BME280_pressure;Samples;Min_cycle;Max_cycle;Signal;HPM_P1;HPM_P2
2022/06/07 00:01:59;;;;;;;2.40;0.82;;;20.40;70.30;;;;;;4975552;28;20405;-69
2022/06/07 00:04:25;;;;;;;2.65;0.70;;;20.50;70.40;;;;;;4975466;28;20123;-69
2022/06/07 00:06:50;;;;;;;1.60;0.80;;;20.50;70.40;;;;;;4975344;28;20037;-69
2022/06/07 00:09:16;;;;;;;3.88;0.93;;;20.50;70.50;;;;;;4975429;28;20102;-69
2022/06/07 00:11:41;;;;;;;1.52;0.80;;;20.40;70.50;;;;;;4974470;28;20460;-69
2022/06/07 00:14:07;;;;;;;4.95;0.80;;;20.40;70.50;;;;;;4975090;28;20042;-69
2022/06/07 00:16:33;;;;;;;1.90;1.02;;;20.50;70.60;;;;;;4974235;28;20055;-69
2022/06/07 00:18:58;;;;;;;1.95;0.95;;;20.50;70.70;;;;;;4973620;28;20489;-69
2022/06/07 00:21:24;;;;;;;4.68;1.00;;;20.40;70.70;;;;;;4974870;28;20026;-69
2022/06/07 00:23:50;;;;;;;3.20;0.85;;;20.50;70.70;;;;;;4973816;28;20513;-69
2022/06/07 00:26:15;;;;;;;2.60;0.75;;;20.40;70.60;;;;;;4974977;28;20054;-69
2022/06/07 00:28:41;;;;;;;3.50;1.17;;;20.50;70.60;;;;;;4975071;28;20058;-69
2022/06/07 00:31:07;;;;;;;2.45;0.90;;;20.50;70.60;;;;;;4973825;28;20054;-69
2022/06/07 00:33:32;;;;;;;2.88;0.80;;;20.50;70.60;;;;;;4973536;28;20023;-69
2022/06/07 00:35:58;;;;;;;1.73;0.80;;;20.50;70.60;;;;;;4973697;28;20600;-69
2022/06/07 00:38:24;;;;;;;1.15;0.70;;;20.50;70.60;;;;;;4973625;28;20069;-69
2022/06/07 00:40:49;;;;;;;1.50;0.98;;;20.50;70.50;;;;;;4973677;28;20034;-69
2022/06/07 00:43:15;;;;;;;2.70;1.05;;;20.50;70.50;;;;;;4974800;28;20070;-69
2022/06/07 00:45:41;;;;;;;2.40;0.73;;;20.50;70.50;;;;;;4974772;28;20113;-69
2022/06/07 00:48:07;;;;;;;1.98;0.63;;;20.50;70.50;;;;;;4973336;28;20398;-69
2022/06/07 00:50:50;;;;;;;0.70;0.70;;;20.50;70.50;;;;;;4957533;28;20026;-69
2022/06/07 00:53:19;;;;;;;3.28;0.65;;;20.50;70.40;;;;;;4973475;28;20022;-69
2022/06/07 00:55:45;;;;;;;1.92;0.70;;;20.50;70.30;;;;;;4973265;28;20027;-69
2022/06/07 00:58:11;;;;;;;2.45;0.90;;;20.50;70.40;;;;;;4974547;28;20037;-69
2022/06/07 01:00:36;;;;;;;3.03;0.80;;;20.50;70.30;;;;;;4974515;28;20049;-69
2022/06/07 01:03:02;;;;;;;1.10;0.80;;;20.50;70.30;;;;;;4974070;28;20478;-69
2022/06/07 01:05:28;;;;;;;1.55;0.90;;;20.50;70.20;;;;;;4974362;28;20113;-69
2022/06/07 01:10:43;;;;;;;4.45;0.93;;;20.50;70.30;;;;;;4974499;28;20090;-69
2022/06/07 01:13:09;;;;;;;2.75;0.77;;;20.50;70.20;;;;;;4974201;28;20033;-69
2022/06/07 01:15:35;;;;;;;8.38;0.90;;;20.50;70.20;;;;;;4974005;28;20019;-70
2022/06/07 01:18:01;;;;;;;2.33;0.75;;;20.50;70.20;;;;;;4974119;28;20492;-70
2022/06/07 01:20:28;;;;;;;2.70;0.60;;;20.50;70.20;;;;;;4972962;28;20018;-69
2022/06/07 01:22:54;;;;;;;3.38;0.93;;;20.50;70.20;;;;;;4972900;28;20035;-69
2022/06/07 01:25:20;;;;;;;1.92;0.80;;;20.50;70.30;;;;;;4973996;28;20497;-69
2022/06/07 01:27:46;;;;;;;5.40;0.60;;;20.50;70.30;;;;;;4956656;28;20027;-69
2022/06/07 01:30:12;;;;;;;1.83;0.88;;;20.50;70.20;;;;;;4974002;28;20024;-69
2022/06/07 01:32:38;;;;;;;2.55;0.73;;;20.50;70.30;;;;;;4973098;28;20027;-69
2022/06/07 01:35:04;;;;;;;2.03;0.60;;;20.50;70.30;;;;;;4972549;28;20437;-69
2022/06/07 01:37:31;;;;;;;1.25;0.70;;;20.60;70.40;;;;;;4974064;28;20102;-69
2022/06/07 01:42:41;;;;;;;1.67;0.77;;;20.50;70.40;;;;;;4974083;28;20046;-69
2022/06/07 01:45:07;;;;;;;2.72;1.00;;;20.50;70.40;;;;;;4973645;28;20438;-69
2022/06/07 01:47:33;;;;;;;3.10;0.75;;;20.50;70.30;;;;;;4973300;28;20046;-69
2022/06/07 01:49:58;;;;;;;1.17;0.70;;;20.60;70.40;;;;;;4972402;28;20547;-70
2022/06/07 01:52:26;;;;;;;1.98;0.88;;;20.50;70.40;;;;;;4972527;28;20030;-69
2022/06/07 01:54:52;;;;;;;1.35;0.70;;;20.50;70.30;;;;;;4972398;28;20015;-69
2022/06/07 01:57:19;;;;;;;2.00;0.80;;;20.60;70.40;;;;;;4972764;28;20435;-69
2022/06/07 01:59:44;;;;;;;5.20;1.10;;;20.50;70.40;;;;;;4973547;28;20509;-69
2022/06/07 02:02:10;;;;;;;1.65;0.70;;;20.50;71.30;;;;;;4973310;28;20023;-69
2022/06/07 02:04:39;;;;;;;2.22;0.80;;;20.50;70.30;;;;;;4973703;28;20085;-69
2022/06/07 02:07:05;;;;;;;4.63;0.85;;;20.50;70.30;;;;;;4972177;28;20031;-69
2022/06/07 02:09:31;;;;;;;0.80;0.55;;;20.60;70.40;;;;;;4956400;28;20018;-69
2022/06/07 02:11:57;;;;;;;1.27;0.52;;;20.50;70.30;;;;;;4972440;28;20027;-69
2022/06/07 02:14:23;;;;;;;0.88;0.60;;;20.60;70.30;;;;;;4973410;28;20023;-69
2022/06/07 02:16:49;;;;;;;1.13;0.70;;;20.50;70.20;;;;;;4972101;28;20123;-69
2022/06/07 02:19:14;;;;;;;1.77;0.70;;;20.60;70.30;;;;;;4973486;28;20474;-69
2022/06/07 02:21:40;;;;;;;1.20;0.70;;;20.50;70.20;;;;;;4973475;28;20478;-69
2022/06/07 02:24:06;;;;;;;2.55;1.00;;;20.60;70.30;;;;;;4954987;28;20463;-69
2022/06/07 02:26:41;;;;;;;1.05;0.75;;;20.50;70.20;;;;;;4952866;29;20446;-69
2022/06/07 02:29:13;;;;;;;2.38;1.02;;;20.50;70.20;;;;;;4952898;29;20023;-69
2022/06/07 02:31:40;;;;;;;2.97;0.52;;;20.50;70.10;;;;;;4952911;29;20039;-69
2022/06/07 02:34:06;;;;;;;3.72;0.95;;;20.50;70.20;;;;;;4952955;29;20023;-69
2022/06/07 02:36:32;;;;;;;1.73;0.80;;;20.50;70.20;;;;;;4952937;29;20086;-69
2022/06/07 02:38:58;;;;;;;0.95;0.50;;;20.60;70.20;;;;;;4952783;29;20106;-69
2022/06/07 02:41:24;;;;;;;1.73;0.60;;;20.50;70.20;;;;;;4952835;29;20034;-69
2022/06/07 02:43:50;;;;;;;0.82;0.60;;;20.60;70.20;;;;;;4955994;28;20090;-70
2022/06/07 02:46:16;;;;;;;2.63;0.70;;;20.50;70.20;;;;;;4957460;29;20473;-69
2022/06/07 02:48:41;;;;;;;3.35;0.65;;;20.50;70.20;;;;;;4957709;29;20019;-69
2022/06/07 02:51:07;;;;;;;2.88;0.63;;;20.50;70.30;;;;;;4957330;29;20066;-69
2022/06/07 02:53:33;;;;;;;1.77;0.70;;;20.50;70.30;;;;;;4956500;29;20038;-69
2022/06/07 02:55:58;;;;;;;1.00;0.68;;;20.50;70.30;;;;;;4956373;29;20035;-69
2022/06/07 02:58:25;;;;;;;1.20;0.60;;;20.50;70.30;;;;;;4956100;29;20027;-69
2022/06/07 03:00:50;;;;;;;1.52;0.60;;;20.60;70.30;;;;;;4956369;29;20030;-69
2022/06/07 03:03:16;;;;;;;0.93;0.70;;;20.50;70.20;;;;;;4956093;29;20027;-69
2022/06/07 03:05:42;;;;;;;3.03;0.60;;;20.50;70.30;;;;;;4955948;29;20024;-69
2022/06/07 03:08:07;;;;;;;0.47;0.47;;;20.60;70.40;;;;;;4957294;29;20027;-69
2022/06/07 03:10:34;;;;;;;1.88;0.73;;;20.50;70.30;;;;;;4956154;29;20038;-69
2022/06/07 03:12:59;;;;;;;1.73;0.77;;;20.50;70.30;;;;;;4955856;29;20023;-69
2022/06/07 03:15:25;;;;;;;0.68;0.50;;;20.60;70.40;;;;;;4967845;28;20081;-69
2022/06/07 03:17:51;;;;;;;2.72;0.80;;;20.60;70.40;;;;;;4976698;28;20034;-69
2022/06/07 03:20:16;;;;;;;1.27;0.70;;;20.50;70.30;;;;;;4976229;28;20027;-69
2022/06/07 03:22:42;;;;;;;0.50;0.50;;;20.50;70.40;;;;;;4976320;28;20018;-70
2022/06/07 03:25:09;;;;;;;1.67;0.70;;;20.50;70.40;;;;;;4974821;28;20038;-70
2022/06/07 03:27:35;;;;;;;0.85;0.50;;;20.50;70.50;;;;;;4974943;28;20489;-70
2022/06/07 03:30:02;;;;;;;2.00;0.50;;;20.60;70.60;;;;;;4974968;28;20497;-70
2022/06/07 03:32:28;;;;;;;1.73;0.70;;;20.50;70.50;;;;;;4959067;28;20517;-70
2022/06/07 03:34:54;;;;;;;1.23;0.60;;;20.50;70.50;;;;;;4974971;28;20106;-70
2022/06/07 03:37:19;;;;;;;0.95;0.57;;;20.60;70.60;;;;;;4974748;28;20019;-70
2022/06/07 03:39:45;;;;;;;1.98;0.60;;;20.60;70.60;;;;;;4974783;28;20033;-70
2022/06/07 03:42:12;;;;;;;1.50;0.52;;;20.50;70.50;;;;;;4974513;28;20026;-70
2022/06/07 03:44:38;;;;;;;1.75;0.70;;;20.50;70.50;;;;;;4959236;28;20027;-70
2022/06/07 03:47:04;;;;;;;2.30;0.47;;;20.60;70.60;;;;;;4975509;28;20053;-70
2022/06/07 03:49:31;;;;;;;3.55;0.80;;;20.60;70.60;;;;;;4975885;28;20110;-69
2022/06/07 03:51:56;;;;;;;0.75;0.57;;;20.60;70.50;;;;;;4975960;28;20023;-69
2022/06/07 03:54:22;;;;;;;4.28;0.60;;;20.50;70.50;;;;;;4973941;28;20085;-69
2022/06/07 03:56:48;;;;;;;0.85;0.63;;;20.50;70.50;;;;;;4975526;28;20027;-70
2022/06/07 03:59:13;;;;;;;1.48;0.65;;;20.50;70.50;;;;;;4975481;28;20026;-69
2022/06/07 04:01:39;;;;;;;4.25;0.73;;;20.50;70.60;;;;;;4975720;28;20414;-69
2022/06/07 04:04:07;;;;;;;0.60;0.60;;;20.50;70.60;;;;;;4975476;28;20494;-70
2022/06/07 04:06:40;;;;;;;2.03;0.70;;;20.60;70.60;;;;;;4958471;28;20027;-69
2022/06/07 04:09:06;;;;;;;2.35;0.70;;;20.50;70.50;;;;;;4975486;28;20058;-69
2022/06/07 04:11:32;;;;;;;1.33;0.65;;;20.50;70.50;;;;;;4975176;28;20027;-69
2022/06/07 04:13:58;;;;;;;1.15;0.63;;;20.50;70.50;;;;;;4974191;28;20078;-70
2022/06/07 04:16:28;;;;;;;1.15;0.60;;;20.50;70.50;;;;;;4957871;28;20393;-69
2022/06/07 04:18:54;;;;;;;1.25;0.80;;;20.50;70.60;;;;;;4974153;28;20019;-69
2022/06/07 04:21:20;;;;;;;2.28;0.80;;;20.50;70.60;;;;;;4975181;28;20040;-69
2022/06/07 04:23:45;;;;;;;1.60;0.93;;;20.50;70.60;;;;;;4975111;28;20045;-69
2022/06/07 04:26:16;;;;;;;2.47;0.70;;;20.50;70.60;;;;;;4974827;28;20031;-69
2022/06/07 04:28:42;;;;;;;1.10;0.70;;;20.60;70.60;;;;;;4974048;28;20023;-69
2022/06/07 04:31:12;;;;;;;1.58;0.50;;;20.60;70.60;;;;;;4975146;28;20031;-69
2022/06/07 04:33:37;;;;;;;0.73;0.40;;;20.50;70.60;;;;;;4957900;28;20102;-69
2022/06/07 04:36:09;;;;;;;0.82;0.50;;;20.50;70.70;;;;;;4974921;28;20398;-69
2022/06/07 04:38:34;;;;;;;4.03;0.70;;;20.50;70.60;;;;;;4958553;28;20065;-70
2022/06/07 04:41:00;;;;;;;2.83;0.55;;;20.50;70.70;;;;;;4973556;28;20070;-70
2022/06/07 04:43:26;;;;;;;3.03;0.77;;;20.60;70.80;;;;;;4974813;28;20165;-70
2022/06/07 04:45:51;;;;;;;0.82;0.65;;;20.60;70.90;;;;;;4974610;28;20113;-70
2022/06/07 04:48:17;;;;;;;1.60;0.80;;;20.50;70.80;;;;;;4973491;28;20375;-70
2022/06/07 04:50:43;;;;;;;2.60;0.73;;;20.50;70.80;;;;;;4973536;28;20520;-70
2022/06/07 04:53:08;;;;;;;1.33;0.60;;;20.60;70.90;;;;;;4974608;28;20034;-69
2022/06/07 04:55:34;;;;;;;1.85;0.65;;;20.60;70.90;;;;;;4957191;28;20030;-70
2022/06/07 04:58:00;;;;;;;1.25;0.50;;;20.50;70.90;;;;;;4974540;28;20034;-70
2022/06/07 05:00:25;;;;;;;3.25;0.82;;;20.60;71.00;;;;;;4974401;28;20023;-70
2022/06/07 05:02:51;;;;;;;0.90;0.60;;;20.60;71.00;;;;;;4974358;28;20033;-70
2022/06/07 05:05:17;;;;;;;3.30;0.70;;;20.50;70.90;;;;;;4971654;28;20545;-68
2022/06/07 05:07:43;;;;;;;1.13;0.65;;;20.50;70.90;;;;;;4970950;28;20448;-69
2022/06/07 05:10:11;;;;;;;3.92;0.60;;;20.60;71.10;;;;;;4972226;28;20022;-69
2022/06/07 05:12:37;;;;;;;3.45;0.73;;;20.60;71.10;;;;;;4971370;28;20118;-70
2022/06/07 05:15:04;;;;;;;4.25;0.63;;;20.60;71.00;;;;;;4971079;28;20552;-70
2022/06/07 05:17:30;;;;;;;0.85;0.43;;;20.60;71.10;;;;;;4970769;28;20400;-70
2022/06/07 05:19:56;;;;;;;1.00;0.50;;;20.60;70.00;;;;;;4971869;28;20034;-70
2022/06/07 05:22:21;;;;;;;5.32;0.70;;;20.50;69.20;;;;;;4973841;28;20097;-70
2022/06/07 05:24:47;;;;;;;1.83;0.50;;;20.50;69.70;;;;;;4972773;28;20019;-70
2022/06/07 05:27:18;;;;;;;1.95;0.50;;;20.50;69.70;;;;;;4973872;28;20038;-70
2022/06/07 05:29:44;;;;;;;1.13;0.50;;;20.50;69.50;;;;;;4956956;28;20033;-70
2022/06/07 05:32:09;;;;;;;1.30;0.55;;;20.50;69.30;;;;;;4973945;28;20110;-70
2022/06/07 05:34:35;;;;;;;1.42;0.60;;;20.50;69.30;;;;;;4972861;28;20050;-70
2022/06/07 05:37:01;;;;;;;1.38;0.45;;;20.50;69.30;;;;;;4973910;28;20059;-70
2022/06/07 05:39:27;;;;;;;1.10;0.40;;;20.50;69.20;;;;;;4973609;28;20484;-70
2022/06/07 05:41:53;;;;;;;1.33;0.57;;;20.50;69.00;;;;;;4972666;28;20027;-69
2022/06/07 05:44:19;;;;;;;1.60;0.50;;;20.50;68.90;;;;;;4972606;28;20027;-71
2022/06/07 05:46:45;;;;;;;2.42;0.60;;;20.50;68.70;;;;;;4972340;28;20062;-70
2022/06/07 05:49:11;;;;;;;0.75;0.55;;;20.50;68.80;;;;;;4973654;28;20095;-71
2022/06/07 05:51:37;;;;;;;0.52;0.43;;;20.50;68.70;;;;;;4973545;28;20027;-71
2022/06/07 05:54:02;;;;;;;0.60;0.50;;;20.40;68.60;;;;;;4972381;28;20573;-71
2022/06/07 05:56:28;;;;;;;2.33;0.65;;;20.50;68.60;;;;;;4972578;28;20102;-71
2022/06/07 05:58:54;;;;;;;0.88;0.50;;;20.50;68.60;;;;;;4973710;28;20505;-71
2022/06/07 06:01:19;;;;;;;5.55;0.65;;;20.40;68.40;;;;;;4973758;28;20498;-71
2022/06/07 06:03:45;;;;;;;1.77;0.55;;;20.50;68.50;;;;;;4973589;28;20045;-71
2022/06/07 06:06:11;;;;;;;0.68;0.50;;;20.40;68.40;;;;;;4973472;28;20055;-71
2022/06/07 06:11:22;;;;;;;1.17;0.57;;;20.50;68.30;;;;;;4972745;28;20404;-71
2022/06/07 06:13:48;;;;;;;2.17;0.63;;;20.40;68.30;;;;;;4973588;28;20022;-71
2022/06/07 06:16:18;;;;;;;2.30;0.50;;;20.40;68.20;;;;;;4972320;28;20038;-71
2022/06/07 06:18:47;;;;;;;1.80;0.57;;;20.40;68.20;;;;;;4974406;28;20393;-71
2022/06/07 06:21:13;;;;;;;1.35;0.70;;;20.40;68.20;;;;;;4976420;28;20113;-71
2022/06/07 06:23:38;;;;;;;0.52;0.43;;;20.40;68.10;;;;;;4977241;28;20516;-71
2022/06/07 06:26:08;;;;;;;1.33;0.40;;;20.40;68.10;;;;;;4977423;28;20473;-71
2022/06/07 06:28:34;;;;;;;1.42;0.50;;;20.40;68.10;;;;;;4976061;28;20019;-71
2022/06/07 06:31:07;;;;;;;1.13;0.50;;;20.40;68.10;;;;;;4977367;28;20106;-71
2022/06/07 06:33:37;;;;;;;0.65;0.40;;;20.40;68.00;;;;;;4974259;28;20018;-72
2022/06/07 06:36:03;;;;;;;1.95;0.63;;;20.40;68.00;;;;;;4976992;28;20039;-71
2022/06/07 06:38:30;;;;;;;15.80;2.20;;;20.40;68.00;;;;;;4975976;28;20097;-71
2022/06/07 06:40:56;;;;;;;19.60;2.10;;;20.40;68.30;;;;;;4977570;28;20019;-73
2022/06/07 06:43:22;;;;;;;13.52;2.05;;;20.40;68.50;;;;;;4975963;28;20453;-72
2022/06/07 06:45:47;;;;;;;13.32;1.85;;;20.40;68.50;;;;;;4975467;28;20457;-72
2022/06/07 06:48:13;;;;;;;12.18;1.75;;;20.40;68.70;;;;;;4976346;28;20031;-71
2022/06/07 06:50:39;;;;;;;10.40;1.90;;;20.40;68.90;;;;;;4976267;28;20062;-71
2022/06/07 06:53:05;;;;;;;8.60;2.03;;;20.40;68.80;;;;;;4976667;28;20492;-71
2022/06/07 06:55:30;;;;;;;9.10;1.75;;;20.40;68.80;;;;;;4976112;28;20030;-71
2022/06/07 06:57:56;;;;;;;10.45;1.98;;;20.40;68.90;;;;;;4975573;28;20509;-71
2022/06/07 07:00:22;;;;;;;8.73;1.70;;;20.40;68.80;;;;;;4975403;28;20061;-71
2022/06/07 07:02:48;;;;;;;10.93;2.15;;;20.40;68.90;;;;;;4975608;28;20106;-71
2022/06/07 07:05:14;;;;;;;6.35;1.60;;;20.40;68.70;;;;;;4973675;28;20109;-71
2022/06/07 07:07:40;;;;;;;8.73;2.22;;;20.30;68.70;;;;;;4976086;28;20015;-71
2022/06/07 07:10:07;;;;;;;11.23;2.20;;;20.30;68.70;;;;;;4975188;28;20038;-71
2022/06/07 07:12:33;;;;;;;18.48;2.42;;;20.40;68.80;;;;;;4976462;28;20031;-71
2022/06/07 07:14:59;;;;;;;8.80;2.35;;;20.40;68.70;;;;;;4975208;28;20023;-71
2022/06/07 07:17:25;;;;;;;10.52;1.88;;;20.40;68.70;;;;;;4975313;28;20027;-71
2022/06/07 07:19:51;;;;;;;11.02;1.95;;;20.40;68.70;;;;;;4976276;28;20038;-71
2022/06/07 07:22:17;;;;;;;10.85;1.70;;;20.40;68.60;;;;;;4976271;28;20030;-71
2022/06/07 07:24:42;;;;;;;9.27;1.77;;;20.40;68.50;;;;;;4976546;28;20030;-71
2022/06/07 07:27:08;;;;;;;5.97;1.48;;;20.40;68.60;;;;;;4976087;28;20069;-71
2022/06/07 07:29:34;;;;;;;7.07;1.60;;;20.40;68.50;;;;;;4973754;28;20019;-72
2022/06/07 07:32:00;;;;;;;7.55;2.17;;;20.40;68.50;;;;;;4959062;28;20026;-71
2022/06/07 07:34:25;;;;;;;8.15;1.50;;;20.40;68.50;;;;;;4975877;28;20034;-71
2022/06/07 07:36:53;;;;;;;12.15;2.05;;;20.40;68.50;;;;;;4975998;28;20029;-71
2022/06/07 07:39:19;;;;;;;11.05;1.98;;;20.30;68.40;;;;;;4959094;28;20105;-71
2022/06/07 07:41:48;;;;;;;8.90;1.60;;;20.30;68.30;;;;;;4974828;28;20128;-71
2022/06/07 07:44:15;;;;;;;7.10;1.92;;;20.30;68.30;;;;;;4974603;28;20037;-71
2022/06/07 07:46:43;;;;;;;7.90;1.73;;;20.30;68.30;;;;;;4958792;28;20122;-71
2022/06/07 07:49:08;;;;;;;9.32;2.17;;;20.30;68.20;;;;;;4974593;28;20038;-71
2022/06/07 07:51:38;;;;;;;9.63;1.92;;;20.30;68.20;;;;;;4958579;28;20023;-71
2022/06/07 07:54:06;;;;;;;7.80;1.73;;;20.30;68.20;;;;;;4958799;28;20031;-71
2022/06/07 07:56:32;;;;;;;9.90;2.08;;;20.30;68.10;;;;;;4974564;28;20023;-71
2022/06/07 07:58:57;;;;;;;6.75;1.67;;;20.30;68.10;;;;;;4958388;28;20400;-71
2022/06/07 08:01:25;;;;;;;5.90;1.95;;;20.30;68.00;;;;;;4958465;28;20090;-71
2022/06/07 08:03:51;;;;;;;8.32;1.60;;;20.30;68.00;;;;;;4974400;28;20031;-71
2022/06/07 08:06:18;;;;;;;7.88;1.42;;;20.30;68.00;;;;;;4975300;28;20537;-72
2022/06/07 08:08:48;;;;;;;10.27;1.70;;;20.30;67.90;;;;;;4974447;28;20077;-71
2022/06/07 08:11:14;;;;;;;7.80;1.75;;;20.30;68.00;;;;;;4974459;28;20085;-71
2022/06/07 08:13:40;;;;;;;5.80;1.50;;;20.30;67.90;;;;;;4975437;28;20033;-71
2022/06/07 08:16:06;;;;;;;7.07;1.75;;;20.30;67.90;;;;;;4975408;28;20030;-71
2022/06/07 08:18:33;;;;;;;4.20;1.60;;;20.30;67.90;;;;;;4973944;28;20022;-71
2022/06/07 08:21:04;;;;;;;5.32;1.52;;;20.30;67.90;;;;;;4974295;28;20038;-71
2022/06/07 08:23:31;;;;;;;7.55;1.60;;;20.30;67.80;;;;;;4975030;28;20030;-71
2022/06/07 08:25:57;;;;;;;8.48;1.50;;;20.30;67.80;;;;;;4975257;28;20027;-71
2022/06/07 08:28:22;;;;;;;5.78;2.03;;;20.30;67.70;;;;;;4957958;28;20094;-71
2022/06/07 08:30:48;;;;;;;5.13;1.50;;;20.30;67.70;;;;;;4973915;28;20146;-71
2022/06/07 08:38:43;;;;;;;4.55;1.67;;;20.30;67.70;;;;;;4960419;28;20512;-71
2022/06/07 08:41:23;;;;;;;7.22;1.63;;;20.30;67.60;;;;;;4974512;28;20027;-71
2022/06/07 08:43:48;;;;;;;9.60;1.75;;;20.30;67.60;;;;;;4973615;28;20050;-71
2022/06/07 08:46:15;;;;;;;9.88;1.67;;;20.30;67.60;;;;;;4957315;28;20548;-71
2022/06/07 08:48:42;;;;;;;10.50;1.60;;;20.20;67.50;;;;;;4957643;28;20042;-71
2022/06/07 08:51:23;;;;;;;4.28;1.50;;;20.30;67.50;;;;;;4974783;28;20026;-71
2022/06/07 08:53:51;;;;;;;4.43;1.23;;;20.30;67.50;;;;;;4958096;28;20027;-71
2022/06/07 08:56:20;;;;;;;5.13;1.40;;;20.20;67.40;;;;;;4974563;28;20019;-71
2022/06/07 08:58:51;;;;;;;3.65;1.48;;;20.20;67.40;;;;;;4957661;28;20030;-71
2022/06/07 09:01:47;;;;;;;4.40;1.10;;;20.20;67.40;;;;;;4958079;28;20058;-71
2022/06/07 09:04:21;;;;;;;5.70;1.13;;;20.30;67.50;;;;;;4974675;28;20022;-71
2022/06/07 09:06:52;;;;;;;6.55;1.27;;;20.20;67.30;;;;;;4957461;28;20034;-71
2022/06/07 09:09:19;;;;;;;4.85;1.38;;;20.30;67.40;;;;;;4974495;28;20019;-71
2022/06/07 09:12:14;;;;;;;6.28;1.20;;;20.20;67.20;;;;;;4973088;28;20022;-71
2022/06/07 09:14:39;;;;;;;3.70;1.60;;;20.20;67.20;;;;;;4962939;28;20028;-71
2022/06/07 09:17:09;;;;;;;5.68;1.40;;;20.30;67.30;;;;;;4954737;29;20086;-71
2022/06/07 09:19:36;;;;;;;4.97;1.50;;;20.20;67.20;;;;;;4953590;29;20023;-71
2022/06/07 09:22:06;;;;;;;3.58;1.10;;;20.20;67.20;;;;;;4954974;29;20051;-71
2022/06/07 09:24:37;;;;;;;2.88;1.02;;;20.20;67.20;;;;;;4953499;29;20045;-71
2022/06/07 09:27:15;;;;;;;4.50;1.48;;;20.20;67.10;;;;;;4953420;29;20086;-71
2022/06/07 09:29:41;;;;;;;3.08;0.88;;;20.20;67.10;;;;;;4953496;29;20035;-71
2022/06/07 09:32:16;;;;;;;2.88;0.90;;;20.20;67.10;;;;;;4953503;29;20032;-71
2022/06/07 09:34:52;;;;;;;3.47;1.10;;;20.20;67.10;;;;;;4953634;29;20027;-71
2022/06/07 09:37:17;;;;;;;1.85;1.17;;;20.20;67.10;;;;;;4953381;29;20050;-71
2022/06/07 09:39:43;;;;;;;3.13;0.88;;;20.20;67.10;;;;;;4953282;29;20030;-71
2022/06/07 09:42:18;;;;;;;2.33;0.90;;;20.20;67.10;;;;;;4953448;29;20099;-71
2022/06/07 09:45:12;;;;;;;3.70;0.82;;;20.20;67.10;;;;;;4953257;29;20474;-71
2022/06/07 09:47:37;;;;;;;1.52;0.85;;;20.20;67.10;;;;;;4953091;29;20090;-71
2022/06/07 09:50:23;;;;;;;2.47;1.08;;;20.20;67.10;;;;;;4953523;29;20028;-71
2022/06/07 09:52:57;;;;;;;2.60;0.90;;;20.20;67.10;;;;;;4953857;28;20516;-71
2022/06/07 09:55:25;;;;;;;4.32;1.30;;;20.20;67.10;;;;;;4954407;29;20019;-71
2022/06/07 09:58:06;;;;;;;5.18;1.10;;;20.20;67.10;;;;;;4954519;29;20023;-71
2022/06/07 10:01:03;;;;;;;4.43;1.00;;;20.30;67.20;;;;;;4954132;29;20019;-71
2022/06/07 10:03:40;;;;;;;5.10;1.25;;;20.20;67.00;;;;;;4953111;29;20062;-71
2022/06/07 10:06:29;;;;;;;4.47;1.00;;;20.20;67.00;;;;;;4957922;28;20521;-71
2022/06/07 10:09:20;;;;;;;3.22;1.25;;;20.20;67.10;;;;;;4973554;28;20401;-71
2022/06/07 10:12:09;;;;;;;4.22;1.27;;;20.20;67.00;;;;;;4972498;28;20031;-71
2022/06/07 10:14:54;;;;;;;2.70;0.98;;;20.20;67.10;;;;;;4971896;28;20035;-71
2022/06/07 10:18:00;;;;;;;3.53;0.73;;;20.20;67.10;;;;;;4973568;28;20023;-71
2022/06/07 10:21:05;;;;;;;4.03;0.90;;;20.20;67.00;;;;;;4973622;28;20031;-71
2022/06/07 10:23:52;;;;;;;2.72;0.93;;;20.20;67.10;;;;;;4973261;28;20026;-71
2022/06/07 10:26:35;;;;;;;3.97;0.90;;;20.20;67.00;;;;;;4973474;28;20037;-71
2022/06/07 10:29:22;;;;;;;4.32;1.05;;;20.20;67.10;;;;;;4973101;28;20027;-71
2022/06/07 10:32:00;;;;;;;1.88;1.10;;;20.20;67.10;;;;;;4973250;28;20539;-71
2022/06/07 10:34:26;;;;;;;3.00;1.25;;;20.20;67.10;;;;;;4957335;28;20375;-71
2022/06/07 10:37:06;;;;;;;3.13;0.90;;;20.20;67.10;;;;;;4973359;28;20081;-71
2022/06/07 10:40:04;;;;;;;4.70;0.80;;;20.20;67.10;;;;;;4972039;28;20062;-71
2022/06/07 10:42:47;;;;;;;3.17;0.80;;;20.20;67.00;;;;;;4971526;28;20046;-71
2022/06/07 10:45:15;;;;;;;;;;;20.20;67.10;;;;;;4972850;28;20027;-71
2022/06/07 10:47:56;;;;;;;1.77;0.85;;;20.20;67.00;;;;;;4973058;28;19944;-71
2022/06/07 10:50:25;;;;;;;2.00;0.52;;;20.20;67.10;;;;;;4972191;28;20073;-71
2022/06/07 10:52:55;;;;;;;3.42;0.60;;;20.20;67.10;;;;;;4956206;28;20026;-71
2022/06/07 10:55:38;;;;;;;1.48;0.40;;;20.20;67.10;;;;;;4972084;28;20058;-71
2022/06/07 10:58:30;;;;;;;1.70;0.60;;;20.20;67.10;;;;;;4971906;28;20106;-71
2022/06/07 11:01:00;;;;;;;1.40;0.73;;;20.20;67.00;;;;;;4972160;28;20031;-71
2022/06/07 11:04:03;;;;;;;2.53;0.82;;;20.20;67.10;;;;;;4972030;28;20030;-71
2022/06/07 11:09:43;;;;;;;2.80;0.88;;;20.20;67.10;;;;;;4975663;28;20050;-71
2022/06/07 11:12:16;;;;;;;1.98;0.70;;;20.20;67.00;;;;;;4975294;28;20023;-71
2022/06/07 11:15:00;;;;;;;2.88;1.00;;;20.20;67.10;;;;;;4975457;28;20023;-71
2022/06/07 11:17:32;;;;;;;1.13;0.95;;;20.20;67.10;;;;;;4976768;28;20506;-71
2022/06/07 11:20:12;;;;;;;0.95;0.63;;;20.20;67.10;;;;;;4959499;28;20042;-71
2022/06/07 11:22:38;;;;;;;1.98;0.60;;;20.20;67.10;;;;;;4960787;28;20039;-71
2022/06/07 11:25:28;;;;;;;0.88;0.70;;;20.20;67.00;;;;;;4959132;28;20497;-71
2022/06/07 11:27:58;;;;;;;2.13;0.60;;;20.20;67.00;;;;;;4976277;28;20030;-71
2022/06/07 11:30:41;;;;;;;3.30;0.75;;;20.20;67.10;;;;;;4959472;28;20037;-71
2022/06/07 11:33:30;;;;;;;1.35;0.73;;;20.20;67.10;;;;;;4974863;28;20029;-71
2022/06/07 11:36:24;;;;;;;1.27;0.40;;;20.20;67.10;;;;;;4975146;28;20034;-71
2022/06/07 11:39:14;;;;;;;1.58;0.65;;;20.20;67.00;;;;;;4974916;28;20022;-71
2022/06/07 11:41:48;;;;;;;1.73;0.70;;;20.20;67.10;;;;;;4975796;28;20030;-71
2022/06/07 11:44:17;;;;;;;2.35;0.57;;;20.20;67.00;;;;;;4958864;28;20026;-71
2022/06/07 11:46:52;;;;;;;2.55;0.50;;;20.20;67.00;;;;;;4975835;28;20057;-71
2022/06/07 11:49:20;;;;;;;2.30;0.80;;;20.20;67.00;;;;;;4976116;28;20085;-71
2022/06/07 11:52:13;;;;;;;2.10;0.88;;;20.20;67.10;;;;;;4975857;28;20042;-71
2022/06/07 11:54:45;;;;;;;1.58;0.50;;;20.20;67.00;;;;;;4975715;28;20026;-71
2022/06/07 11:57:33;;;;;;;4.07;0.65;;;20.20;67.00;;;;;;4974782;28;20106;-71
2022/06/07 12:00:03;;;;;;;2.20;0.85;;;20.20;67.00;;;;;;4974759;28;20110;-71
2022/06/07 12:02:30;;;;;;;3.53;0.65;;;20.20;67.00;;;;;;4958949;28;20035;-71
2022/06/07 12:04:57;;;;;;;2.42;1.00;;;20.20;67.00;;;;;;4974365;28;20106;-71
2022/06/07 12:07:35;;;;;;;0.77;0.40;;;20.20;67.00;;;;;;4974329;28;20038;-71
2022/06/07 12:10:19;;;;;;;2.10;0.50;;;20.20;67.00;;;;;;4975421;28;20023;-71
2022/06/07 12:12:58;;;;;;;0.50;0.50;;;20.20;67.00;;;;;;4975665;28;20019;-71
2022/06/07 12:15:57;;;;;;;1.10;0.47;;;20.30;67.00;;;;;;4973686;28;20537;-71
2022/06/07 12:18:27;;;;;;;1.55;0.60;;;20.20;67.00;;;;;;4974012;28;20035;-71
2022/06/07 12:21:09;;;;;;;3.60;0.95;;;20.20;67.00;;;;;;4974213;28;20019;-71
2022/06/07 12:23:37;;;;;;;1.92;0.40;;;20.20;67.00;;;;;;4958790;28;20469;-71
2022/06/07 12:26:23;;;;;;;1.63;0.60;;;20.30;67.00;;;;;;4973910;28;20027;-71
2022/06/07 12:29:00;;;;;;;1.30;0.60;;;20.30;67.10;;;;;;4973986;28;20404;-71
2022/06/07 12:31:28;;;;;;;1.33;0.50;;;20.30;67.00;;;;;;4974167;28;20023;-71
2022/06/07 12:33:55;;;;;;;1.02;0.60;;;20.30;67.00;;;;;;4973958;28;20019;-71
2022/06/07 12:36:29;;;;;;;2.95;0.52;;;20.30;67.00;;;;;;4973992;28;20493;-71
2022/06/07 12:38:56;;;;;;;1.42;0.70;;;20.30;67.00;;;;;;4973731;28;20050;-71
2022/06/07 12:41:24;;;;;;;1.38;0.60;;;20.30;67.00;;;;;;4957786;28;20031;-71
2022/06/07 12:43:55;;;;;;;2.38;0.50;;;20.30;67.00;;;;;;4973612;28;20105;-71
2022/06/07 12:46:31;;;;;;;1.55;0.55;;;20.30;67.00;;;;;;4973478;28;20054;-71
2022/06/07 12:48:58;;;;;;;1.65;0.47;;;20.30;66.90;;;;;;4974777;28;20057;-71
2022/06/07 12:51:39;;;;;;;1.27;0.60;;;20.30;66.90;;;;;;4957775;28;20021;-71
2022/06/07 12:54:09;;;;;;;2.88;0.85;;;20.30;66.90;;;;;;4973563;28;20027;-71
2022/06/07 12:56:38;;;;;;;1.60;0.40;;;20.30;66.90;;;;;;4973718;28;20026;-71
2022/06/07 12:59:09;;;;;;;0.95;0.50;;;20.30;66.90;;;;;;4957271;28;20418;-71
2022/06/07 13:01:37;;;;;;;0.70;0.40;;;20.30;66.90;;;;;;4957333;28;20512;-71
2022/06/07 13:04:58;;;;;;;1.50;0.40;;;20.30;66.90;;;;;;4957534;28;20449;-71
2022/06/07 13:07:23;;;;;;;1.35;0.63;;;20.30;66.80;;;;;;4948420;29;20530;-71
2022/06/07 13:09:53;;;;;;;2.63;0.77;;;20.30;66.90;;;;;;4952952;29;20067;-71
2022/06/07 13:12:30;;;;;;;1.23;0.60;;;20.30;66.90;;;;;;4953104;29;20023;-71
2022/06/07 13:14:56;;;;;;;1.02;0.68;;;20.30;66.90;;;;;;4940446;29;20118;-71
2022/06/07 13:17:38;;;;;;;0.60;0.32;;;20.30;66.80;;;;;;4934004;29;20128;-71